createdAt,value
2018-07-24T00:01:16.983Z,19.53
2018-07-24T00:03:44.672Z,17.83
2018-07-24T00:06:12.386Z,16.07
2018-07-24T00:08:40.076Z,18.67
2018-07-24T00:11:07.730Z,17.30
2018-07-24T00:13:35.301Z,20.80
2018-07-24T00:16:02.991Z,23.17
2018-07-24T00:18:30.707Z,18.40
2018-07-24T00:20:58.370Z,22.40
2018-07-24T00:23:25.949Z,19.43
2018-07-24T00:25:53.697Z,17.93
2018-07-24T00:28:21.177Z,20.30
2018-07-24T00:30:48.855Z,22.43
2018-07-24T00:33:16.490Z,20.83
2018-07-24T00:35:44.191Z,19.30
2018-07-24T00:38:11.898Z,21.43
2018-07-24T00:40:39.471Z,20.30
2018-07-24T00:43:07.161Z,22.20
2018-07-24T00:45:34.814Z,23.13
2018-07-24T00:48:02.495Z,21.67
2018-07-24T00:50:30.125Z,19.43
2018-07-24T00:52:57.841Z,17.33
2018-07-24T00:55:26.170Z,21.50
2018-07-24T00:57:54.676Z,19.03
2018-07-24T01:00:22.406Z,19.97
2018-07-24T01:02:50.130Z,21.47
2018-07-24T01:05:17.810Z,20.60
2018-07-24T01:07:45.505Z,20.27
2018-07-24T01:10:13.200Z,21.87
2018-07-24T01:12:40.887Z,18.87
2018-07-24T01:15:08.772Z,18.23
2018-07-24T01:17:36.506Z,16.93
2018-07-24T01:20:04.827Z,17.63
2018-07-24T01:22:32.561Z,18.97
2018-07-24T01:25:01.265Z,17.33
2018-07-24T01:27:29.002Z,20.10
2018-07-24T01:29:56.685Z,19.83
2018-07-24T01:32:24.434Z,17.03
2018-07-24T01:34:52.015Z,18.00
2018-07-24T01:37:20.701Z,15.67
2018-07-24T01:39:48.511Z,19.17
2018-07-24T01:42:16.936Z,20.83
2018-07-24T01:44:44.541Z,21.40
2018-07-24T01:47:12.191Z,19.63
2018-07-24T01:49:39.854Z,20.90
2018-07-24T01:52:07.552Z,16.23
2018-07-24T01:54:35.992Z,14.80
2018-07-24T01:57:03.599Z,15.97
2018-07-24T01:59:31.375Z,17.77
2018-07-24T02:01:59.080Z,17.03
2018-07-24T02:04:26.778Z,16.50
2018-07-24T02:06:54.326Z,20.73
2018-07-24T02:09:21.875Z,22.23
2018-07-24T02:11:49.571Z,19.60
2018-07-24T02:14:17.282Z,20.60
2018-07-24T02:16:44.981Z,17.70
2018-07-24T02:19:12.656Z,17.60
2018-07-24T02:21:40.380Z,18.27
2018-07-24T02:24:08.080Z,20.10
2018-07-24T02:26:35.715Z,17.80
2018-07-24T02:29:03.437Z,17.83
2018-07-24T02:31:31.023Z,15.60
2018-07-24T02:33:58.696Z,19.97
2018-07-24T02:36:26.331Z,18.17
2018-07-24T02:38:54.062Z,20.50
2018-07-24T02:41:21.625Z,17.73
2018-07-24T02:43:49.302Z,19.83
2018-07-24T02:46:17.019Z,17.90
2018-07-24T02:48:44.591Z,14.97
2018-07-24T02:51:12.287Z,16.17
2018-07-24T02:53:40.081Z,14.40
2018-07-24T02:56:08.616Z,17.77
2018-07-24T02:58:36.359Z,14.70
2018-07-24T03:01:03.992Z,13.70
2018-07-24T03:03:31.717Z,15.53
2018-07-24T03:05:59.311Z,18.77
2018-07-24T03:08:26.881Z,18.70
2018-07-24T03:10:54.509Z,17.87
2018-07-24T03:13:22.186Z,20.47
2018-07-24T03:15:49.887Z,21.03
2018-07-24T03:18:17.407Z,19.87
2018-07-24T03:20:45.142Z,18.80
2018-07-24T03:23:12.797Z,18.37
2018-07-24T03:25:40.499Z,16.47
2018-07-24T03:28:08.177Z,17.43
2018-07-24T03:30:35.868Z,18.20
2018-07-24T03:33:03.517Z,17.70
2018-07-24T03:35:31.212Z,17.17
2018-07-24T03:37:58.828Z,17.97
2018-07-24T03:40:26.567Z,16.60
2018-07-24T03:42:54.299Z,17.53
2018-07-24T03:45:21.957Z,17.23
2018-07-24T03:47:49.652Z,16.93
2018-07-24T03:50:17.392Z,20.27
2018-07-24T03:52:45.101Z,16.27
2018-07-24T03:55:12.803Z,14.57
2018-07-24T03:57:40.505Z,14.13
2018-07-24T04:00:08.196Z,14.17
2018-07-24T04:02:35.736Z,15.87
2018-07-24T04:05:03.607Z,15.07
2018-07-24T04:07:31.331Z,18.90
2018-07-24T04:09:58.871Z,17.03
2018-07-24T04:12:26.602Z,17.43
2018-07-24T04:14:54.232Z,16.00
2018-07-24T04:17:21.943Z,17.07
2018-07-24T04:19:49.632Z,18.97
2018-07-24T04:22:17.203Z,18.40
2018-07-24T04:24:44.761Z,20.73
2018-07-24T04:27:12.331Z,23.67
2018-07-24T04:29:39.906Z,21.50
2018-07-24T04:32:07.447Z,23.65
2018-07-24T04:34:34.978Z,21.90
2018-07-24T04:37:02.636Z,16.40
2018-07-24T04:39:30.377Z,18.00
2018-07-24T04:41:58.085Z,17.47
2018-07-24T04:44:25.822Z,16.03
2018-07-24T04:46:53.516Z,16.20
2018-07-24T04:49:21.187Z,16.17
2018-07-24T04:51:48.927Z,18.07
2018-07-24T04:54:16.587Z,18.50
2018-07-24T04:56:44.302Z,17.70
2018-07-24T04:59:11.996Z,17.40
2018-07-24T05:01:39.838Z,18.17
2018-07-24T05:04:07.673Z,18.23
2018-07-24T05:06:35.417Z,21.73
2018-07-24T05:09:05.237Z,24.00
2018-07-24T05:11:32.752Z,24.83
2018-07-24T05:14:00.484Z,25.50
2018-07-24T05:16:28.152Z,19.03
2018-07-24T05:18:55.700Z,19.33
2018-07-24T05:21:23.428Z,18.67
2018-07-24T05:23:51.067Z,16.77
2018-07-24T05:26:18.873Z,19.77
2018-07-24T05:28:46.408Z,19.10
2018-07-24T05:31:14.042Z,22.73
2018-07-24T05:33:41.722Z,23.53
2018-07-24T05:36:09.436Z,23.00
2018-07-24T05:38:37.168Z,24.07
2018-07-24T05:41:04.863Z,24.57
2018-07-24T05:43:32.575Z,23.70
2018-07-24T05:46:00.186Z,22.37
2018-07-24T05:48:27.908Z,20.43
2018-07-24T05:50:55.619Z,18.77
2018-07-24T05:53:23.362Z,19.83
2018-07-24T05:55:51.012Z,18.77
2018-07-24T05:58:18.798Z,18.50
2018-07-24T06:00:46.384Z,17.60
2018-07-24T06:03:14.077Z,18.63
2018-07-24T06:05:41.748Z,19.80
2018-07-24T06:08:09.484Z,18.47
2018-07-24T06:10:37.185Z,18.13
2018-07-24T06:13:04.983Z,16.07
2018-07-24T06:15:32.562Z,15.37
2018-07-24T06:18:00.295Z,17.07
2018-07-24T06:20:28.674Z,16.97
2018-07-24T06:22:56.378Z,16.47
2018-07-24T06:25:24.202Z,16.07
2018-07-24T06:27:51.888Z,15.57
2018-07-24T06:30:20.133Z,16.50
2018-07-24T06:32:47.787Z,16.50
2018-07-24T06:35:15.529Z,17.00
2018-07-24T06:37:43.212Z,18.90
2018-07-24T06:40:10.929Z,17.53
2018-07-24T06:42:38.566Z,16.93
2018-07-24T06:45:06.216Z,17.27
2018-07-24T06:47:33.913Z,16.07
2018-07-24T06:50:01.638Z,15.67
2018-07-24T06:52:29.370Z,14.73
2018-07-24T06:54:57.179Z,15.83
2018-07-24T06:57:24.817Z,15.73
2018-07-24T06:59:52.581Z,14.63
2018-07-24T07:02:20.332Z,15.13
2018-07-24T07:04:47.911Z,13.00
2018-07-24T07:07:15.455Z,15.70
2018-07-24T07:09:43.593Z,13.43
2018-07-24T07:12:11.391Z,13.40
2018-07-24T07:14:39.043Z,13.47
2018-07-24T07:17:06.744Z,13.40
2018-07-24T07:19:34.891Z,12.63
2018-07-24T07:22:02.599Z,13.37
2018-07-24T07:24:30.164Z,13.17
2018-07-24T07:26:57.893Z,13.10
2018-07-24T07:29:25.589Z,12.57
2018-07-24T07:31:53.219Z,11.77
2018-07-24T07:34:20.908Z,11.83
2018-07-24T07:36:48.668Z,11.93
2018-07-24T07:39:16.233Z,11.83
2018-07-24T07:41:43.911Z,11.57
2018-07-24T07:44:11.692Z,11.07
2018-07-24T07:46:39.404Z,11.53
2018-07-24T07:49:07.089Z,11.67
2018-07-24T07:51:34.842Z,11.37
2018-07-24T07:54:02.524Z,10.80
2018-07-24T07:56:30.222Z,10.93
2018-07-24T07:58:57.938Z,11.60
2018-07-24T08:01:25.647Z,11.17
2018-07-24T08:03:53.403Z,10.90
2018-07-24T08:06:20.986Z,10.57
2018-07-24T08:08:48.654Z,10.40
2018-07-24T08:11:16.391Z,9.50
2018-07-24T08:13:44.053Z,9.80
2018-07-24T08:16:11.752Z,10.37
2018-07-24T08:18:39.389Z,10.50
2018-07-24T08:21:07.168Z,10.73
2018-07-24T08:23:34.878Z,9.63
2018-07-24T08:26:02.497Z,10.37
2018-07-24T08:28:30.263Z,11.13
2018-07-24T08:30:58.009Z,9.37
2018-07-24T08:33:25.624Z,9.33
2018-07-24T08:35:53.253Z,10.20
2018-07-24T08:38:20.782Z,8.97
2018-07-24T08:40:48.532Z,9.30
2018-07-24T08:43:16.189Z,9.87
2018-07-24T08:45:43.953Z,7.93
2018-07-24T08:48:11.712Z,8.30
2018-07-24T08:50:39.432Z,9.07
2018-07-24T08:53:07.209Z,9.53
2018-07-24T08:55:35.305Z,9.30
2018-07-24T08:58:02.618Z,8.37
2018-07-24T09:00:30.415Z,9.10
2018-07-24T09:02:58.167Z,8.40
2018-07-24T09:05:25.858Z,9.20
2018-07-24T09:07:53.574Z,8.73
2018-07-24T09:10:21.329Z,8.57
2018-07-24T09:12:48.810Z,8.50
2018-07-24T09:15:16.550Z,9.30
2018-07-24T09:17:44.101Z,9.20
2018-07-24T09:20:11.845Z,8.90
2018-07-24T09:22:39.538Z,9.33
2018-07-24T09:25:07.219Z,8.13
2018-07-24T09:27:34.774Z,9.50
2018-07-24T09:30:02.583Z,9.13
2018-07-24T09:32:30.299Z,9.13
2018-07-24T09:34:58.064Z,8.90
2018-07-24T09:37:25.744Z,8.00
2018-07-24T09:39:53.494Z,8.67
2018-07-24T09:42:21.194Z,8.80
2018-07-24T09:44:48.792Z,7.93
2018-07-24T09:47:16.470Z,7.33
2018-07-24T09:49:44.094Z,8.00
2018-07-24T09:52:11.855Z,9.23
2018-07-24T09:54:40.182Z,8.13
2018-07-24T09:57:08.609Z,8.00
2018-07-24T09:59:36.319Z,7.50
2018-07-24T10:02:04.724Z,7.80
2018-07-24T10:04:33.002Z,7.20
2018-07-24T10:07:00.707Z,7.93
2018-07-24T10:09:28.929Z,7.50
2018-07-24T10:11:56.556Z,8.40
2018-07-24T10:14:24.228Z,7.47
2018-07-24T10:16:52.019Z,7.37
2018-07-24T10:19:19.670Z,7.50
2018-07-24T10:21:47.208Z,6.97
2018-07-24T10:24:15.064Z,7.10
2018-07-24T10:26:43.009Z,7.13
2018-07-24T10:29:10.788Z,6.78
2018-07-24T10:31:38.513Z,6.55
2018-07-24T10:34:06.271Z,6.50
2018-07-24T10:36:34.021Z,7.00
2018-07-24T10:39:02.520Z,5.97
2018-07-24T10:41:30.195Z,5.90
2018-07-24T10:43:57.838Z,5.30
2018-07-24T10:46:26.205Z,5.72
2018-07-24T10:48:54.383Z,5.20
2018-07-24T10:51:21.979Z,5.97
2018-07-24T10:53:49.764Z,5.30
2018-07-24T10:56:17.560Z,5.50
2018-07-24T10:58:45.138Z,5.78
2018-07-24T11:01:12.818Z,5.60
2018-07-24T11:03:40.449Z,5.80
2018-07-24T11:06:08.188Z,5.47
2018-07-24T11:08:36.598Z,5.50
2018-07-24T11:11:04.433Z,5.83
2018-07-24T11:13:32.078Z,5.12
2018-07-24T11:15:59.670Z,5.20
2018-07-24T11:18:27.458Z,5.37
2018-07-24T11:20:55.374Z,5.45
2018-07-24T11:23:23.058Z,5.97
2018-07-24T11:25:50.687Z,6.33
2018-07-24T11:28:18.540Z,5.92
2018-07-24T11:30:46.295Z,5.60
2018-07-24T11:33:14.139Z,5.85
2018-07-24T11:35:42.647Z,5.17
2018-07-24T11:38:10.234Z,5.80
2018-07-24T11:40:37.908Z,5.65
2018-07-24T11:43:05.569Z,5.45
2018-07-24T11:45:33.292Z,5.60
2018-07-24T11:48:00.874Z,5.92
2018-07-24T11:50:28.652Z,5.50
2018-07-24T11:52:56.353Z,5.58
2018-07-24T11:55:24.104Z,5.87
2018-07-24T11:57:51.723Z,5.62
2018-07-24T12:00:19.488Z,6.28
2018-07-24T12:02:47.227Z,5.40
2018-07-24T12:05:15.183Z,5.70
2018-07-24T12:07:42.896Z,5.62
2018-07-24T12:10:10.630Z,5.60
2018-07-24T12:12:38.214Z,5.50
2018-07-24T12:15:06.231Z,4.95
2018-07-24T12:17:33.825Z,5.60
2018-07-24T12:20:02.260Z,5.60
2018-07-24T12:22:30.060Z,5.30
2018-07-24T12:24:57.845Z,6.00
2018-07-24T12:27:26.409Z,4.90
2018-07-24T12:29:54.129Z,5.00
2018-07-24T12:32:21.750Z,5.47
2018-07-24T12:34:49.593Z,5.47
2018-07-24T12:37:17.347Z,5.25
2018-07-24T12:39:45.016Z,4.60
2018-07-24T12:42:12.584Z,4.62
2018-07-24T12:44:40.451Z,5.15
2018-07-24T12:47:08.791Z,5.28
2018-07-24T12:49:36.408Z,4.70
2018-07-24T12:52:04.114Z,5.08
2018-07-24T12:54:31.829Z,4.83
2018-07-24T12:56:59.546Z,5.67
2018-07-24T12:59:27.945Z,5.42
2018-07-24T13:01:55.557Z,4.80
2018-07-24T13:04:23.224Z,4.83
2018-07-24T13:06:50.941Z,4.67
2018-07-24T13:09:18.664Z,4.37
2018-07-24T13:11:46.449Z,4.50
2018-07-24T13:14:14.116Z,4.42
2018-07-24T13:16:41.731Z,4.37
2018-07-24T13:19:09.775Z,5.20
2018-07-24T13:21:37.642Z,4.72
2018-07-24T13:24:05.345Z,4.92
2018-07-24T13:26:33.159Z,4.62
2018-07-24T13:29:00.868Z,5.00
2018-07-24T13:31:28.715Z,4.70
2018-07-24T13:33:57.375Z,4.40
2018-07-24T13:36:24.934Z,4.28
2018-07-24T13:38:52.645Z,4.83
2018-07-24T13:41:20.265Z,4.80
2018-07-24T13:43:47.919Z,4.53
2018-07-24T13:46:15.571Z,4.92
2018-07-24T13:48:43.100Z,4.33
2018-07-24T13:51:10.839Z,4.25
2018-07-24T13:53:38.556Z,4.45
2018-07-24T13:58:34.499Z,4.87
2018-07-24T14:01:02.220Z,4.75
2018-07-24T14:03:29.963Z,4.47
2018-07-24T14:05:57.676Z,4.35
2018-07-24T14:08:26.503Z,4.62
2018-07-24T14:10:55.017Z,4.10
2018-07-24T14:13:22.880Z,4.33
2018-07-24T14:15:50.594Z,4.20
2018-07-24T14:18:18.340Z,4.60
2018-07-24T14:20:46.109Z,4.53
2018-07-24T14:23:13.870Z,5.03
2018-07-24T14:25:41.657Z,5.40
2018-07-24T14:28:09.471Z,5.53
2018-07-24T14:30:37.223Z,5.10
2018-07-24T14:33:05.013Z,4.90
2018-07-24T14:35:32.779Z,5.60
2018-07-24T14:38:00.492Z,5.62
2018-07-24T14:40:29.020Z,6.12
2018-07-24T14:42:57.077Z,6.55
2018-07-24T14:45:24.856Z,5.10
2018-07-24T14:47:52.604Z,4.90
2018-07-24T14:50:20.366Z,5.22
2018-07-24T14:52:48.173Z,4.67
2018-07-24T14:55:15.894Z,5.30
2018-07-24T14:57:43.615Z,5.50
2018-07-24T15:00:11.372Z,5.15
2018-07-24T15:02:39.107Z,5.20
2018-07-24T15:05:07.108Z,5.70
2018-07-24T15:07:34.759Z,4.95
2018-07-24T15:10:02.581Z,4.58
2018-07-24T15:12:30.549Z,5.03
2018-07-24T15:14:58.237Z,5.35
2018-07-24T15:17:26.017Z,5.05
2018-07-24T15:19:53.637Z,5.12
2018-07-24T15:22:21.365Z,5.45
2018-07-24T15:24:49.091Z,5.17
2018-07-24T15:27:16.644Z,5.12
2018-07-24T15:29:44.691Z,5.08
2018-07-24T15:32:12.290Z,4.87
2018-07-24T15:34:40.069Z,4.62
2018-07-24T15:37:07.532Z,5.20
2018-07-24T15:39:35.371Z,4.85
2018-07-24T15:42:03.041Z,5.20
2018-07-24T15:44:30.624Z,5.58
2018-07-24T15:46:59.066Z,5.35
2018-07-24T15:49:26.716Z,4.80
2018-07-24T15:51:54.419Z,5.17
2018-07-24T15:54:22.023Z,5.33
2018-07-24T15:56:49.756Z,5.30
2018-07-24T15:59:17.394Z,5.10
2018-07-24T16:01:45.225Z,5.30
2018-07-24T16:04:12.995Z,5.60
2018-07-24T16:06:40.787Z,5.12
2018-07-24T16:09:10.807Z,5.50
2018-07-24T16:11:38.641Z,5.70
2018-07-24T16:14:06.251Z,6.17
2018-07-24T16:16:33.996Z,5.58
2018-07-24T16:19:01.833Z,5.60
2018-07-24T16:21:29.586Z,5.72
2018-07-24T16:23:57.271Z,4.95
2018-07-24T16:26:25.093Z,5.42
2018-07-24T16:28:52.811Z,5.62
2018-07-24T16:31:20.490Z,5.40
2018-07-24T16:33:48.211Z,5.40
2018-07-24T16:36:16.035Z,5.22
2018-07-24T16:38:43.727Z,5.62
2018-07-24T16:41:11.461Z,4.97
2018-07-24T16:43:39.220Z,5.50
2018-07-24T16:46:06.961Z,5.10
2018-07-24T16:48:34.510Z,5.20
2018-07-24T16:51:02.228Z,5.33
2018-07-24T16:53:29.986Z,5.70
2018-07-24T16:55:57.733Z,5.73
2018-07-24T16:58:25.530Z,5.50
2018-07-24T17:00:53.196Z,5.23
2018-07-24T17:03:20.993Z,5.20
2018-07-24T17:05:48.551Z,5.30
2018-07-24T17:08:16.409Z,5.57
2018-07-24T17:10:44.142Z,5.60
2018-07-24T17:13:11.832Z,5.60
2018-07-24T17:15:39.646Z,5.60
2018-07-24T17:18:07.372Z,5.87
2018-07-24T17:20:35.055Z,5.50
2018-07-24T17:23:02.628Z,5.50
2018-07-24T17:25:30.466Z,5.03
2018-07-24T17:27:58.170Z,5.70
2018-07-24T17:30:25.931Z,6.07
2018-07-24T17:32:53.783Z,6.00
2018-07-24T17:35:21.591Z,6.00
2018-07-24T17:37:49.315Z,5.17
2018-07-24T17:40:16.933Z,5.90
2018-07-24T17:42:44.682Z,5.33
2018-07-24T17:45:12.326Z,5.77
2018-07-24T17:47:39.989Z,6.07
2018-07-24T17:50:08.227Z,5.60
2018-07-24T17:52:35.862Z,5.90
2018-07-24T17:55:03.651Z,5.33
2018-07-24T17:57:31.338Z,5.63
2018-07-24T17:59:59.142Z,6.00
2018-07-24T18:02:26.887Z,5.27
2018-07-24T18:04:54.599Z,5.37
2018-07-24T18:07:22.360Z,5.80
2018-07-24T18:09:50.087Z,5.20
2018-07-24T18:12:17.832Z,5.17
2018-07-24T18:14:45.508Z,5.40
2018-07-24T18:17:13.380Z,5.40
2018-07-24T18:19:41.120Z,5.07
2018-07-24T18:22:08.971Z,6.07
2018-07-24T18:24:36.720Z,5.87
2018-07-24T18:27:04.321Z,5.70
2018-07-24T18:29:31.998Z,5.30
2018-07-24T18:31:59.752Z,6.07
2018-07-24T18:34:27.481Z,6.00
2018-07-24T18:36:55.306Z,7.17
2018-07-24T18:39:23.031Z,5.80
2018-07-24T18:41:50.730Z,5.93
2018-07-24T18:44:18.467Z,6.23
2018-07-24T18:46:46.342Z,6.40
2018-07-24T18:49:13.967Z,6.23
2018-07-24T18:51:41.663Z,5.90
2018-07-24T18:54:10.273Z,5.83
2018-07-24T18:56:38.030Z,6.03
2018-07-24T18:59:05.997Z,6.50
2018-07-24T19:01:33.743Z,6.13
2018-07-24T19:04:01.522Z,6.40
2018-07-24T19:06:29.281Z,6.40
2018-07-24T19:08:57.015Z,6.47
2018-07-24T19:11:24.631Z,7.20
2018-07-24T19:13:52.358Z,7.00
2018-07-24T19:16:20.153Z,6.80
2018-07-24T19:18:47.892Z,6.37
2018-07-24T19:21:15.673Z,6.87
2018-07-24T19:23:43.347Z,7.20
2018-07-24T19:26:11.148Z,7.53
2018-07-24T19:28:38.841Z,7.63
2018-07-24T19:31:06.527Z,7.33
2018-07-24T19:33:34.343Z,7.67
2018-07-24T19:36:02.123Z,7.10
2018-07-24T19:38:29.894Z,7.90
2018-07-24T19:40:57.651Z,8.60
2018-07-24T19:43:25.427Z,9.03
2018-07-24T19:45:53.323Z,13.27
2018-07-24T19:48:20.981Z,13.47
2018-07-24T19:50:48.718Z,11.57
2018-07-24T19:53:16.455Z,10.40
2018-07-24T19:55:44.254Z,11.67
2018-07-24T19:58:12.054Z,10.57
2018-07-24T20:00:39.802Z,10.93
2018-07-24T20:03:07.615Z,11.73
2018-07-24T20:05:35.323Z,11.20
2018-07-24T20:08:03.192Z,11.37
2018-07-24T20:10:30.929Z,10.30
2018-07-24T20:12:58.734Z,10.03
2018-07-24T20:15:26.428Z,10.37
2018-07-24T20:17:54.158Z,10.03
2018-07-24T20:20:21.881Z,10.00
2018-07-24T20:25:20.609Z,9.63
2018-07-24T20:27:48.387Z,10.03
2018-07-24T20:30:16.084Z,9.63
2018-07-24T20:32:43.670Z,9.43
2018-07-24T20:35:11.449Z,10.93
2018-07-24T20:37:39.126Z,10.90
2018-07-24T20:40:06.874Z,11.10
2018-07-24T20:42:34.679Z,10.93
2018-07-24T20:45:02.563Z,10.60
2018-07-24T20:47:30.221Z,10.27
2018-07-24T20:49:57.994Z,12.10
2018-07-24T20:52:25.776Z,10.60
2018-07-24T20:54:53.594Z,11.33
2018-07-24T20:57:21.307Z,10.93
2018-07-24T20:59:49.022Z,11.13
2018-07-24T21:02:16.916Z,10.47
2018-07-24T21:04:44.802Z,9.80
2018-07-24T21:07:12.507Z,10.57
2018-07-24T21:09:40.924Z,10.20
2018-07-24T21:12:08.568Z,9.80
2018-07-24T21:14:36.185Z,10.90
2018-07-24T21:17:04.147Z,10.83
2018-07-24T21:19:32.652Z,10.93
2018-07-24T21:22:00.400Z,10.63
2018-07-24T21:24:28.769Z,10.03
2018-07-24T21:26:56.486Z,10.97
2018-07-24T21:29:24.211Z,9.73
2018-07-24T21:31:51.796Z,10.50
2018-07-24T21:34:19.361Z,9.70
2018-07-24T21:36:47.068Z,10.17
2018-07-24T21:39:14.654Z,10.47
2018-07-24T21:41:42.221Z,11.43
2018-07-24T21:44:09.786Z,10.50
2018-07-24T21:46:37.427Z,10.17
2018-07-24T21:49:05.808Z,11.47
2018-07-24T21:51:33.463Z,11.80
2018-07-24T21:54:01.062Z,12.50
2018-07-24T21:56:28.951Z,11.90
2018-07-24T21:58:57.682Z,11.47
2018-07-24T22:01:25.614Z,11.27
2018-07-24T22:03:54.167Z,13.40
2018-07-24T22:06:22.942Z,11.90
2018-07-24T22:08:51.544Z,11.50
2018-07-24T22:11:20.287Z,13.33
2018-07-24T22:13:47.987Z,11.73
2018-07-24T22:16:16.039Z,11.47
2018-07-24T22:18:44.501Z,10.90
2018-07-24T22:21:12.152Z,11.10
2018-07-24T22:23:40.496Z,12.87
2018-07-24T22:26:08.194Z,12.37
2018-07-24T22:28:36.567Z,11.77
2018-07-24T22:31:05.882Z,10.73
2018-07-24T22:33:34.246Z,12.33
2018-07-24T22:36:03.478Z,11.33
2018-07-24T22:38:33.803Z,11.17
2018-07-24T22:41:01.427Z,10.70
2018-07-24T22:43:29.137Z,10.77
2018-07-24T22:45:56.779Z,11.63
2018-07-24T22:48:25.002Z,11.50
2018-07-24T22:50:52.626Z,11.27
2018-07-24T22:53:20.133Z,12.70
2018-07-24T22:55:47.748Z,10.80
2018-07-24T22:58:15.399Z,13.30
2018-07-24T23:00:43.114Z,10.60
2018-07-24T23:03:10.776Z,13.27
2018-07-24T23:05:38.513Z,12.20
2018-07-24T23:08:06.188Z,12.70
2018-07-24T23:10:33.949Z,13.27
2018-07-24T23:13:03.451Z,11.70
2018-07-24T23:15:31.276Z,14.37
2018-07-24T23:17:58.858Z,11.73
2018-07-24T23:20:27.798Z,12.53
2018-07-24T23:22:55.464Z,12.07
2018-07-24T23:25:23.588Z,12.60
2018-07-24T23:27:51.334Z,13.07
2018-07-24T23:30:20.642Z,13.63
2018-07-24T23:32:49.241Z,13.07
2018-07-24T23:35:16.933Z,13.57
2018-07-24T23:37:44.862Z,12.63
2018-07-24T23:40:12.732Z,12.23
2018-07-24T23:42:40.998Z,12.03
2018-07-24T23:45:08.759Z,11.90
2018-07-24T23:47:36.299Z,10.87
2018-07-24T23:50:04.238Z,11.23
2018-07-24T23:52:32.002Z,12.30
2018-07-24T23:54:59.654Z,13.93
2018-07-24T23:57:27.348Z,10.47
2018-07-24T23:59:55.532Z,13.70
